Beamsville, Canada
Current Conditions -  °F | °C
As of 9:00 PM on Saturday 25 Oct 2014 (Local Time) from CYSN Reporting Station
Broken Clouds Broken Clouds  
Wind Chill: 57°   Ceiling: 5200
Heat Index: 57°   Visibility: 15mi
Dew Point: 50°   Wind: 12mph
Humidity: 77%   Direction: 270°W
Pressure: 29.6"   Gusts: NA
Location:  43.16°N, 79.48°W
Report Text: CYSN 260100Z 27010KT 220V290 15SM BKN052 14/10 A2960 RMK SC5 SLP025 DENSITY ALT 500FT
Loading
Personal Weather Stations






























Interactive Weather Map
Tropical Storm Tracking
New forecast layout! Learn more

10-Day Weather Forecast

Advertisements
Track Severe Weather on mobile